createdAt,value
2023-03-06T00:04:08.535Z,100.00
2023-03-06T00:14:11.547Z,100.00
2023-03-06T00:24:15.959Z,100.00
2023-03-06T00:34:18.917Z,100.00
2023-03-06T00:44:23.984Z,100.00
2023-03-06T00:54:26.977Z,100.00
2023-03-06T01:04:31.471Z,100.00
2023-03-06T01:14:34.621Z,100.00
2023-03-06T01:24:39.593Z,100.00
2023-03-06T01:34:42.585Z,100.00
2023-03-06T01:45:01.297Z,100.00
2023-03-06T01:55:08.384Z,100.00
2023-03-06T02:05:12.902Z,100.00
2023-03-06T02:15:17.985Z,100.00
2023-03-06T02:25:34.666Z,100.00
2023-03-06T02:35:40.371Z,100.00
2023-03-06T02:45:50.071Z,100.00
2023-03-06T02:55:53.152Z,100.00
2023-03-06T03:05:58.468Z,100.00
2023-03-06T03:16:07.357Z,100.00
2023-03-06T03:26:14.103Z,100.00
2023-03-06T03:36:20.375Z,100.00
2023-03-06T03:46:26.601Z,100.00
2023-03-06T03:56:31.978Z,100.00
2023-03-06T04:06:41.576Z,100.00
2023-03-06T04:16:45.082Z,100.00
2023-03-06T04:26:50.213Z,100.00
2023-03-06T04:36:53.599Z,100.00
2023-03-06T04:46:58.166Z,100.00
2023-03-06T04:57:01.178Z,100.00
2023-03-06T05:07:05.538Z,100.00
2023-03-06T05:17:08.736Z,100.00
2023-03-06T05:27:15.203Z,100.00
2023-03-06T05:37:19.816Z,100.00
2023-03-06T05:47:24.285Z,100.00
2023-03-06T05:57:27.480Z,100.00
2023-03-06T06:07:32.456Z,100.00
2023-03-06T06:17:35.498Z,100.00
2023-03-06T06:27:41.212Z,100.00
2023-03-06T06:37:44.363Z,100.00
2023-03-06T06:47:51.300Z,100.00
2023-03-06T06:57:54.376Z,100.00
2023-03-06T07:07:58.772Z,100.00
2023-03-06T07:18:01.788Z,100.00
2023-03-06T07:28:06.429Z,100.00
2023-03-06T07:38:09.875Z,100.00
2023-03-06T07:48:14.822Z,100.00
2023-03-06T07:58:17.633Z,100.00
2023-03-06T08:08:21.946Z,100.00
2023-03-06T08:18:24.892Z,100.00
2023-03-06T08:28:29.664Z,100.00
2023-03-06T08:38:32.796Z,100.00
2023-03-06T08:48:37.124Z,100.00
2023-03-06T08:58:40.324Z,100.00
2023-03-06T09:08:44.814Z,100.00
2023-03-06T09:18:50.357Z,100.00
2023-03-06T09:28:54.790Z,100.00
2023-03-06T09:38:57.948Z,100.00
2023-03-06T09:49:31.354Z,98.98
2023-03-06T09:59:34.811Z,97.13
2023-03-06T10:09:45.673Z,95.85
2023-03-06T10:19:49.512Z,93.54
2023-03-06T10:30:03.980Z,90.82
2023-03-06T10:40:16.958Z,90.40
2023-03-06T10:50:26.003Z,89.83
2023-03-06T11:00:36.002Z,87.03
2023-03-06T11:10:40.412Z,85.41
2023-03-06T11:20:52.090Z,86.73
2023-03-06T11:31:03.185Z,84.23
2023-03-06T11:41:15.005Z,85.83
2023-03-06T11:51:23.596Z,84.47
2023-03-06T12:01:33.853Z,82.07
2023-03-06T12:11:47.151Z,79.45
2023-03-06T12:22:03.496Z,77.88
2023-03-06T12:32:30.453Z,78.07
2023-03-06T12:43:00.326Z,78.60
2023-03-06T12:53:07.603Z,79.24
2023-03-06T13:03:18.891Z,78.96
2023-03-06T13:13:35.370Z,81.73
2023-03-06T13:23:53.001Z,74.72
2023-03-06T13:34:03.054Z,75.67
2023-03-06T13:44:43.079Z,75.23
2023-03-06T13:54:59.078Z,71.78
2023-03-06T14:05:03.977Z,74.51
2023-03-06T14:15:18.846Z,76.95
2023-03-06T14:25:29.760Z,79.70
2023-03-06T14:35:34.486Z,77.46
2023-03-06T14:45:38.783Z,81.38
2023-03-06T14:55:51.256Z,87.90
2023-03-06T15:05:55.695Z,89.71
2023-03-06T15:16:04.478Z,89.12
2023-03-06T15:26:29.373Z,87.33
2023-03-06T15:36:35.440Z,86.01
2023-03-06T15:46:38.527Z,85.43
2023-03-06T15:56:45.556Z,85.17
2023-03-06T16:06:48.839Z,86.24
2023-03-06T16:16:55.139Z,85.01
2023-03-06T16:27:01.604Z,84.21
2023-03-06T16:37:07.624Z,76.96
2023-03-06T16:47:12.266Z,74.88
2023-03-06T16:57:16.736Z,73.53
2023-03-06T17:07:19.686Z,75.34
2023-03-06T17:17:24.185Z,76.32
2023-03-06T17:27:27.241Z,76.43
2023-03-06T17:37:33.006Z,77.15
2023-03-06T17:47:36.401Z,77.01
2023-03-06T17:57:40.729Z,78.01
2023-03-06T18:07:43.955Z,80.48
2023-03-06T18:17:48.420Z,81.26
2023-03-06T18:27:51.414Z,81.03
2023-03-06T18:37:55.834Z,80.54
2023-03-06T18:47:58.890Z,79.19
2023-03-06T18:58:03.360Z,77.77
2023-03-06T19:08:06.701Z,81.25
2023-03-06T19:18:12.153Z,87.75
2023-03-06T19:28:15.176Z,89.26
2023-03-06T19:38:19.563Z,90.14
2023-03-06T19:48:22.888Z,94.50
2023-03-06T19:58:27.727Z,97.39
2023-03-06T20:08:30.777Z,99.68
2023-03-06T20:18:35.220Z,100.00
2023-03-06T20:28:39.372Z,100.00
2023-03-06T20:38:44.468Z,100.00
2023-03-06T20:48:48.576Z,100.00
2023-03-06T20:58:53.343Z,100.00
2023-03-06T21:08:56.806Z,100.00
2023-03-06T21:19:01.737Z,100.00
2023-03-06T21:29:05.126Z,100.00
2023-03-06T21:39:09.476Z,100.00
2023-03-06T21:49:12.471Z,100.00
2023-03-06T21:59:16.831Z,100.00
2023-03-06T22:09:20.040Z,100.00
2023-03-06T22:19:24.455Z,100.00
2023-03-06T22:29:27.830Z,100.00
2023-03-06T22:39:32.173Z,100.00
2023-03-06T22:49:35.167Z,100.00
2023-03-06T22:59:39.524Z,100.00
2023-03-06T23:09:42.556Z,100.00
2023-03-06T23:20:09.994Z,100.00
2023-03-06T23:30:31.690Z,100.00
2023-03-06T23:40:36.045Z,100.00
2023-03-06T23:50:41.166Z,100.00
